DLH205 KLAX-ESSA
Flight info
| Callsign | DLH205 |
|---|---|
| Flight time | N/A |
| Altitude | 35000 |
| Route | OSHNN1 BEALE Q842 WINEN DCT MLF DCT OCS DCT YBR DCT YIV DCT DUGNO DCT BEZED DCT 68N050W DCT 69N040W DCT 69N030W DCT 68N020W DCT 67N010W DCT 65N000W DCT GIKOR DCT VEXOM DCT EGAGO DCT PERAX DCT ELTOK ELTO8M |
| Aircraft | A388/J-SADE2E3FGHIJ3J4J5M1RWXY/LB1D1 |
Departure
| Time | 2026-04-26 05:18 |
|---|---|
| Airport | Los Angeles International Airport (KLAX) |
Arrival
| Time | N/A |
|---|---|
| Airport | Stockholm-Arlanda Airport (ESSA) |
| Time | Latitude | Longitude | Altitude | Speed | Heading |
|---|---|---|---|---|---|
| 2026-04-26 04:45 | 33.94258 | -118.41114 | 141 ft | 0 kts | 83° |
| 2026-04-26 05:05 | 33.94257 | -118.41128 | 141 ft | 2 kts | 82° |
| 2026-04-26 05:05 | 33.94255 | -118.41145 | 141 ft | 1 kts | 82° |
| 2026-04-26 05:06 | 33.94254 | -118.41157 | 141 ft | 2 kts | 77° |
| 2026-04-26 05:06 | 33.94249 | -118.41175 | 141 ft | 2 kts | 57° |
| 2026-04-26 05:06 | 33.94239 | -118.41190 | 141 ft | 2 kts | 42° |
| 2026-04-26 05:06 | 33.94227 | -118.41201 | 141 ft | 2 kts | 27° |
| 2026-04-26 05:07 | 33.94214 | -118.41208 | 141 ft | 2 kts | 12° |
| 2026-04-26 05:07 | 33.94198 | -118.41211 | 141 ft | 2 kts | 357° |
| 2026-04-26 05:07 | 33.94192 | -118.41212 | 141 ft | 1 kts | 352° |
| 2026-04-26 05:07 | 33.94188 | -118.41211 | 141 ft | 0 kts | 353° |
| 2026-04-26 05:10 | 33.94201 | -118.41213 | 141 ft | 5 kts | 353° |
| 2026-04-26 05:10 | 33.94255 | -118.41222 | 141 ft | 11 kts | 353° |
| 2026-04-26 05:10 | 33.94350 | -118.41236 | 141 ft | 16 kts | 353° |
| 2026-04-26 05:10 | 33.94463 | -118.41253 | 141 ft | 17 kts | 353° |
| 2026-04-26 05:11 | 33.94584 | -118.41271 | 141 ft | 18 kts | 353° |
| 2026-04-26 05:11 | 33.94703 | -118.41291 | 141 ft | 15 kts | 352° |
| 2026-04-26 05:11 | 33.94789 | -118.41251 | 141 ft | 14 kts | 61° |
| 2026-04-26 05:11 | 33.94809 | -118.41130 | 141 ft | 15 kts | 83° |
| 2026-04-26 05:12 | 33.94821 | -118.41008 | 141 ft | 15 kts | 83° |
| 2026-04-26 05:12 | 33.94833 | -118.40889 | 141 ft | 14 kts | 83° |
| 2026-04-26 05:12 | 33.94845 | -118.40773 | 141 ft | 14 kts | 83° |
| 2026-04-26 05:12 | 33.94856 | -118.40660 | 141 ft | 13 kts | 83° |
| 2026-04-26 05:13 | 33.94868 | -118.40549 | 141 ft | 13 kts | 83° |
| 2026-04-26 05:13 | 33.94879 | -118.40442 | 141 ft | 13 kts | 83° |
| 2026-04-26 05:13 | 33.94890 | -118.40337 | 141 ft | 13 kts | 83° |
| 2026-04-26 05:13 | 33.94901 | -118.40234 | 141 ft | 12 kts | 83° |
| 2026-04-26 05:14 | 33.94911 | -118.40134 | 141 ft | 12 kts | 83° |
| 2026-04-26 05:14 | 33.94921 | -118.40036 | 141 ft | 12 kts | 83° |
| 2026-04-26 05:14 | 33.94954 | -118.39936 | 141 ft | 13 kts | 44° |
| 2026-04-26 05:14 | 33.95029 | -118.39933 | 141 ft | 9 kts | 317° |
| 2026-04-26 05:15 | 33.95037 | -118.39986 | 141 ft | 4 kts | 263° |
| 2026-04-26 05:15 | 33.95036 | -118.39997 | 141 ft | 0 kts | 263° |
| 2026-04-26 05:17 | 33.95025 | -118.40098 | 141 ft | 38 kts | 263° |
| 2026-04-26 05:17 | 33.94967 | -118.40677 | 141 ft | 101 kts | 263° |
| 2026-04-26 05:17 | 33.94859 | -118.41770 | 142 ft | 162 kts | 263° |
| 2026-04-26 05:18 | 33.94705 | -118.43273 | 526 ft | 194 kts | 263° |
| 2026-04-26 05:18 | 33.94535 | -118.44913 | 1238 ft | 203 kts | 263° |
| 2026-04-26 05:18 | 33.94402 | -118.46618 | 1780 ft | 209 kts | 266° |
| 2026-04-26 05:18 | 33.94325 | -118.48371 | 2279 ft | 212 kts | 267° |
| 2026-04-26 05:19 | 33.94258 | -118.50157 | 2781 ft | 215 kts | 266° |
| 2026-04-26 05:19 | 33.94140 | -118.51952 | 3209 ft | 219 kts | 264° |
| 2026-04-26 05:19 | 33.93995 | -118.53796 | 3623 ft | 234 kts | 264° |
| 2026-04-26 05:19 | 33.93835 | -118.55861 | 4112 ft | 258 kts | 264° |
| 2026-04-26 05:20 | 33.93666 | -118.58022 | 4506 ft | 263 kts | 264° |
| 2026-04-26 05:20 | 33.93481 | -118.60202 | 4884 ft | 263 kts | 259° |
| 2026-04-26 05:20 | 33.92710 | -118.62131 | 5483 ft | 262 kts | 225° |
| 2026-04-26 05:20 | 33.91184 | -118.63319 | 6180 ft | 265 kts | 208° |
| 2026-04-26 05:21 | 33.89440 | -118.64019 | 6809 ft | 271 kts | 190° |
| 2026-04-26 05:21 | 33.87556 | -118.64000 | 7457 ft | 276 kts | 179° |
| 2026-04-26 05:21 | 33.85652 | -118.63812 | 8083 ft | 279 kts | 176° |
| 2026-04-26 05:21 | 33.83771 | -118.63204 | 8710 ft | 286 kts | 162° |
| 2026-04-26 05:22 | 33.82009 | -118.62076 | 9342 ft | 293 kts | 151° |
| 2026-04-26 05:22 | 33.80333 | -118.60689 | 9972 ft | 297 kts | 150° |
| 2026-04-26 05:22 | 33.78569 | -118.59265 | 10641 ft | 317 kts | 152° |
| 2026-04-26 05:22 | 33.76681 | -118.57737 | 11331 ft | 343 kts | 151° |
| 2026-04-26 05:23 | 33.74640 | -118.56077 | 12018 ft | 371 kts | 151° |
| 2026-04-26 05:23 | 33.72444 | -118.54285 | 12695 ft | 397 kts | 149° |
| 2026-04-26 05:23 | 33.70397 | -118.51988 | 13315 ft | 414 kts | 133° |
| 2026-04-26 05:23 | 33.68897 | -118.49006 | 13953 ft | 426 kts | 119° |
| 2026-04-26 05:24 | 33.67832 | -118.45670 | 14583 ft | 434 kts | 112° |
| 2026-04-26 05:24 | 33.66837 | -118.42223 | 15215 ft | 438 kts | 114° |
| 2026-04-26 05:24 | 33.65795 | -118.38782 | 15839 ft | 443 kts | 114° |
| 2026-04-26 05:24 | 33.64938 | -118.35228 | 16440 ft | 451 kts | 105° |
| 2026-04-26 05:25 | 33.64515 | -118.31482 | 17070 ft | 459 kts | 95° |
| 2026-04-26 05:25 | 33.64529 | -118.27640 | 17702 ft | 466 kts | 92° |
| 2026-04-26 05:25 | 33.64587 | -118.23750 | 18315 ft | 471 kts | 86° |
| 2026-04-26 05:25 | 33.65414 | -118.19949 | 18920 ft | 479 kts | 66° |
| 2026-04-26 05:26 | 33.67238 | -118.16596 | 19571 ft | 482 kts | 49° |
| 2026-04-26 05:26 | 33.69598 | -118.13768 | 20204 ft | 485 kts | 35° |
| 2026-04-26 05:26 | 33.72327 | -118.11406 | 20857 ft | 490 kts | 34° |
| 2026-04-26 05:26 | 33.75026 | -118.08893 | 21490 ft | 497 kts | 36° |
| 2026-04-26 05:27 | 33.77774 | -118.06363 | 22122 ft | 503 kts | 35° |
| 2026-04-26 05:27 | 33.80547 | -118.03803 | 22753 ft | 509 kts | 36° |
| 2026-04-26 05:27 | 33.83372 | -118.01195 | 23388 ft | 515 kts | 36° |
| 2026-04-26 05:27 | 33.86230 | -117.98551 | 24026 ft | 521 kts | 36° |
| 2026-04-26 05:28 | 33.89099 | -117.95893 | 24661 ft | 526 kts | 36° |
| 2026-04-26 05:28 | 33.92001 | -117.93217 | 25298 ft | 531 kts | 35° |
| 2026-04-26 05:28 | 33.94939 | -117.90543 | 25934 ft | 536 kts | 36° |
| 2026-04-26 05:28 | 33.97900 | -117.87835 | 26573 ft | 540 kts | 35° |
| 2026-04-26 05:29 | 34.00885 | -117.85104 | 27207 ft | 545 kts | 35° |
| 2026-04-26 05:29 | 34.03902 | -117.82341 | 27686 ft | 550 kts | 35° |
| 2026-04-26 05:29 | 34.06938 | -117.79509 | 28139 ft | 551 kts | 39° |
| 2026-04-26 05:29 | 34.09689 | -117.76326 | 28601 ft | 551 kts | 45° |
| 2026-04-26 05:30 | 34.12230 | -117.72898 | 29045 ft | 551 kts | 50° |
| 2026-04-26 05:30 | 34.14626 | -117.69327 | 29488 ft | 550 kts | 51° |
| 2026-04-26 05:30 | 34.17023 | -117.65755 | 29929 ft | 550 kts | 50° |
| 2026-04-26 05:30 | 34.19420 | -117.62199 | 30371 ft | 549 kts | 50° |
| 2026-04-26 05:31 | 34.21817 | -117.58632 | 30815 ft | 548 kts | 50° |
| 2026-04-26 05:31 | 34.24222 | -117.55054 | 31261 ft | 547 kts | 50° |
| 2026-04-26 05:31 | 34.26602 | -117.51508 | 31705 ft | 546 kts | 50° |
| 2026-04-26 05:31 | 34.28979 | -117.47962 | 32151 ft | 545 kts | 50° |
| 2026-04-26 05:32 | 34.31353 | -117.44417 | 32597 ft | 544 kts | 50° |
| 2026-04-26 05:32 | 34.33718 | -117.40882 | 33044 ft | 543 kts | 50° |
| 2026-04-26 05:32 | 34.36078 | -117.37356 | 33493 ft | 542 kts | 50° |
| 2026-04-26 05:32 | 34.38431 | -117.33831 | 33936 ft | 541 kts | 51° |
| 2026-04-26 05:33 | 34.40796 | -117.30288 | 34366 ft | 540 kts | 51° |
| 2026-04-26 05:33 | 34.43133 | -117.26777 | 34795 ft | 538 kts | 51° |
| 2026-04-26 05:33 | 34.45474 | -117.23263 | 34997 ft | 541 kts | 51° |
| 2026-04-26 05:33 | 34.47831 | -117.19724 | 34969 ft | 544 kts | 51° |
| 2026-04-26 05:34 | 34.51271 | -117.14543 | 34986 ft | 545 kts | 51° |
| 2026-04-26 05:34 | 34.56057 | -117.07423 | 34974 ft | 546 kts | 49° |
| 2026-04-26 05:35 | 34.60289 | -117.01272 | 34936 ft | 541 kts | 50° |
| 2026-04-26 05:35 | 34.64665 | -116.94888 | 34929 ft | 536 kts | 50° |
| 2026-04-26 05:36 | 34.68900 | -116.88703 | 34910 ft | 535 kts | 50° |
| 2026-04-26 05:36 | 34.73631 | -116.81779 | 34903 ft | 535 kts | 50° |
| 2026-04-26 05:37 | 34.78356 | -116.74849 | 34892 ft | 535 kts | 50° |
| 2026-04-26 05:37 | 34.83075 | -116.67916 | 34880 ft | 535 kts | 50° |
| 2026-04-26 05:38 | 34.87936 | -116.61093 | 34869 ft | 534 kts | 46° |
| 2026-04-26 05:38 | 34.92934 | -116.54434 | 34866 ft | 533 kts | 47° |
| 2026-04-26 05:39 | 34.97902 | -116.47786 | 34866 ft | 533 kts | 46° |
| 2026-04-26 05:39 | 35.02859 | -116.41138 | 34866 ft | 532 kts | 46° |
| 2026-04-26 05:40 | 35.07832 | -116.34457 | 34867 ft | 532 kts | 47° |
| 2026-04-26 05:40 | 35.12777 | -116.27804 | 34843 ft | 531 kts | 47° |
| 2026-04-26 05:41 | 35.17697 | -116.21166 | 34848 ft | 529 kts | 47° |
| 2026-04-26 05:41 | 35.22626 | -116.14506 | 34849 ft | 528 kts | 47° |
| 2026-04-26 05:42 | 35.27520 | -116.07881 | 34832 ft | 527 kts | 47° |
| 2026-04-26 05:42 | 35.32401 | -116.01258 | 34816 ft | 526 kts | 47° |
| 2026-04-26 05:43 | 35.37282 | -115.94621 | 34803 ft | 528 kts | 47° |
| 2026-04-26 05:43 | 35.42189 | -115.87941 | 34785 ft | 528 kts | 47° |
| 2026-04-26 05:44 | 35.47069 | -115.81281 | 34780 ft | 528 kts | 47° |
| 2026-04-26 05:44 | 35.51939 | -115.74623 | 34775 ft | 527 kts | 47° |
| 2026-04-26 05:45 | 35.56820 | -115.67936 | 34775 ft | 527 kts | 47° |
| 2026-04-26 05:45 | 35.61681 | -115.61264 | 34777 ft | 527 kts | 47° |
| 2026-04-26 05:46 | 35.66536 | -115.54586 | 34778 ft | 527 kts | 47° |
| 2026-04-26 05:46 | 35.71388 | -115.47898 | 34778 ft | 527 kts | 47° |
| 2026-04-26 05:47 | 35.76264 | -115.41164 | 34780 ft | 528 kts | 47° |
| 2026-04-26 05:47 | 35.81129 | -115.34431 | 34781 ft | 529 kts | 48° |
| 2026-04-26 05:48 | 35.85994 | -115.27684 | 34771 ft | 530 kts | 48° |
| 2026-04-26 05:48 | 35.90884 | -115.20889 | 34767 ft | 531 kts | 48° |
| 2026-04-26 05:49 | 35.98205 | -115.10690 | 34761 ft | 533 kts | 48° |
| 2026-04-26 05:50 | 36.03081 | -115.03887 | 34767 ft | 529 kts | 49° |
| 2026-04-26 05:50 | 36.07939 | -114.97080 | 34769 ft | 528 kts | 48° |
| 2026-04-26 05:51 | 36.12781 | -114.90293 | 34755 ft | 529 kts | 48° |
| 2026-04-26 05:51 | 36.17821 | -114.83770 | 34742 ft | 526 kts | 34° |
| 2026-04-26 05:52 | 36.23942 | -114.78944 | 34760 ft | 526 kts | 28° |
| 2026-04-26 05:52 | 36.30200 | -114.74275 | 34763 ft | 527 kts | 28° |
| 2026-04-26 05:53 | 36.36450 | -114.69629 | 34764 ft | 527 kts | 28° |
| 2026-04-26 05:53 | 36.42707 | -114.64969 | 34766 ft | 528 kts | 28° |
| 2026-04-26 05:54 | 36.48986 | -114.60283 | 34767 ft | 528 kts | 28° |
| 2026-04-26 05:54 | 36.55210 | -114.55628 | 34759 ft | 522 kts | 28° |
| 2026-04-26 05:55 | 36.61390 | -114.50999 | 34774 ft | 521 kts | 28° |
| 2026-04-26 05:55 | 36.67552 | -114.46375 | 34770 ft | 520 kts | 28° |
| 2026-04-26 05:56 | 36.73735 | -114.41726 | 34771 ft | 520 kts | 28° |
| 2026-04-26 05:56 | 36.79885 | -114.37092 | 34772 ft | 519 kts | 28° |
| 2026-04-26 05:57 | 36.86036 | -114.32451 | 34761 ft | 519 kts | 28° |
| 2026-04-26 05:57 | 36.92189 | -114.27796 | 34764 ft | 518 kts | 28° |
| 2026-04-26 05:58 | 36.98314 | -114.23156 | 34764 ft | 517 kts | 28° |
| 2026-04-26 05:58 | 37.04427 | -114.18516 | 34769 ft | 517 kts | 29° |
| 2026-04-26 05:59 | 37.10536 | -114.13869 | 34773 ft | 516 kts | 29° |
| 2026-04-26 05:59 | 37.16650 | -114.09209 | 34778 ft | 515 kts | 29° |
| 2026-04-26 06:00 | 37.22726 | -114.04570 | 34803 ft | 514 kts | 29° |
| 2026-04-26 06:00 | 37.28790 | -113.99930 | 34834 ft | 513 kts | 29° |
| 2026-04-26 06:01 | 37.34877 | -113.95265 | 34844 ft | 514 kts | 28° |
| 2026-04-26 06:01 | 37.40946 | -113.90606 | 34844 ft | 514 kts | 28° |
| 2026-04-26 06:02 | 37.47010 | -113.85940 | 34846 ft | 513 kts | 28° |
| 2026-04-26 06:02 | 37.53062 | -113.81274 | 34847 ft | 513 kts | 28° |
| 2026-04-26 06:03 | 37.59138 | -113.76584 | 34848 ft | 513 kts | 29° |